createdAt,value
2018-04-22T00:00:56.837Z,0
2018-04-22T00:01:58.193Z,0
2018-04-22T00:02:59.553Z,0
2018-04-22T00:04:00.915Z,0
2018-04-22T00:05:02.280Z,0
2018-04-22T00:06:03.647Z,0
2018-04-22T00:07:05.024Z,0
2018-04-22T00:08:06.349Z,0
2018-04-22T00:09:07.710Z,0
2018-04-22T00:10:09.063Z,0
2018-04-22T00:11:10.436Z,0
2018-04-22T00:12:11.802Z,0
2018-04-22T00:13:13.162Z,0
2018-04-22T00:14:14.524Z,0
2018-04-22T00:15:15.882Z,0
2018-04-22T00:16:17.253Z,0
2018-04-22T00:17:18.621Z,0
2018-04-22T00:18:19.989Z,0
2018-04-22T00:19:21.354Z,0
2018-04-22T00:20:22.715Z,0
2018-04-22T00:21:24.075Z,0
2018-04-22T00:22:25.453Z,0
2018-04-22T00:23:26.814Z,0
2018-04-22T00:24:28.173Z,0
2018-04-22T00:25:29.542Z,0
2018-04-22T00:26:30.902Z,0
2018-04-22T00:27:32.265Z,0
2018-04-22T00:28:33.631Z,0
2018-04-22T00:29:35.062Z,0
2018-04-22T00:30:36.440Z,0
2018-04-22T00:31:37.812Z,0
2018-04-22T00:32:39.177Z,0
2018-04-22T00:33:40.541Z,0
2018-04-22T00:34:41.913Z,0
2018-04-22T00:35:43.276Z,0
2018-04-22T00:36:44.639Z,0
2018-04-22T00:37:46.010Z,0
2018-04-22T00:38:47.376Z,0
2018-04-22T00:39:48.738Z,0
2018-04-22T00:40:50.098Z,0
2018-04-22T00:41:51.455Z,0
2018-04-22T00:42:52.819Z,0
2018-04-22T00:43:54.185Z,0
2018-04-22T00:44:55.565Z,0
2018-04-22T00:45:56.929Z,0
2018-04-22T00:46:58.297Z,0
2018-04-22T00:47:59.674Z,0
2018-04-22T00:49:01.033Z,0
2018-04-22T00:50:02.394Z,0
2018-04-22T00:51:03.753Z,0
2018-04-22T00:52:05.681Z,0
2018-04-22T00:53:06.428Z,0
2018-04-22T00:54:07.791Z,0
2018-04-22T00:55:09.152Z,0
2018-04-22T00:56:10.525Z,0
2018-04-22T00:57:11.884Z,0
2018-04-22T00:58:13.250Z,0
2018-04-22T00:59:14.612Z,0
2018-04-22T01:00:15.975Z,0
2018-04-22T01:01:17.351Z,0
2018-04-22T01:02:18.716Z,0
2018-04-22T01:03:20.075Z,0
2018-04-22T01:04:21.441Z,0
2018-04-22T01:05:22.807Z,0
2018-04-22T01:06:24.168Z,0
2018-04-22T01:07:25.530Z,0
2018-04-22T01:08:26.880Z,0
2018-04-22T01:09:28.244Z,0
2018-04-22T01:10:29.627Z,0
2018-04-22T01:11:30.991Z,0
2018-04-22T01:12:32.349Z,0
2018-04-22T01:13:33.704Z,0
2018-04-22T01:14:35.129Z,0
2018-04-22T01:15:36.478Z,0
2018-04-22T01:16:37.837Z,0
2018-04-22T01:17:39.196Z,0
2018-04-22T01:18:40.557Z,0
2018-04-22T01:19:41.924Z,0
2018-04-22T01:20:43.286Z,0
2018-04-22T01:21:44.650Z,0
2018-04-22T01:22:46.009Z,0
2018-04-22T01:23:47.374Z,0
2018-04-22T01:24:48.737Z,0
2018-04-22T01:25:50.102Z,0
2018-04-22T01:26:51.466Z,0
2018-04-22T01:27:52.830Z,0
2018-04-22T01:28:54.191Z,0
2018-04-22T01:29:55.553Z,0
2018-04-22T01:30:56.912Z,0
2018-04-22T01:31:58.270Z,0
2018-04-22T01:32:59.633Z,0
2018-04-22T01:34:00.995Z,0
2018-04-22T01:35:02.366Z,0
2018-04-22T01:36:03.730Z,0
2018-04-22T01:37:05.103Z,0
2018-04-22T01:38:08.136Z,0
2018-04-22T01:39:09.493Z,0
2018-04-22T01:40:10.857Z,0
2018-04-22T01:41:12.214Z,0
2018-04-22T01:42:13.577Z,0
2018-04-22T01:43:14.951Z,0
2018-04-22T01:44:16.311Z,0
2018-04-22T01:45:17.673Z,0
2018-04-22T01:46:19.038Z,0
2018-04-22T01:47:20.412Z,0
2018-04-22T01:48:21.772Z,0
2018-04-22T01:49:23.132Z,0
2018-04-22T01:50:24.488Z,0
2018-04-22T01:51:25.855Z,0
2018-04-22T01:52:27.211Z,0
2018-04-22T01:53:28.572Z,0
2018-04-22T01:54:29.938Z,0
2018-04-22T01:55:31.300Z,0
2018-04-22T01:56:32.660Z,0
2018-04-22T01:57:34.018Z,0
2018-04-22T01:58:35.376Z,0
2018-04-22T01:59:36.740Z,0
2018-04-22T02:00:38.103Z,0
2018-04-22T02:01:39.468Z,0
2018-04-22T02:02:51.214Z,0
2018-04-22T02:03:51.082Z,0
2018-04-22T02:04:52.441Z,0
2018-04-22T02:05:53.800Z,0
2018-04-22T02:06:55.158Z,0
2018-04-22T02:07:56.528Z,0
2018-04-22T02:08:57.889Z,0
2018-04-22T02:09:59.255Z,0
2018-04-22T02:11:00.606Z,0
2018-04-22T02:12:01.994Z,0
2018-04-22T02:13:03.334Z,0
2018-04-22T02:14:04.696Z,0
2018-04-22T02:15:06.060Z,0
2018-04-22T02:16:07.426Z,0
2018-04-22T02:17:08.799Z,0
2018-04-22T02:18:10.175Z,0
2018-04-22T02:19:11.530Z,0
2018-04-22T02:20:12.887Z,0
2018-04-22T02:21:14.278Z,0
2018-04-22T02:22:15.637Z,0
2018-04-22T02:23:17.000Z,0
2018-04-22T02:24:18.371Z,0
2018-04-22T02:25:19.729Z,0
2018-04-22T02:26:21.088Z,0
2018-04-22T02:27:22.444Z,0
2018-04-22T02:28:23.811Z,0
2018-04-22T02:29:25.167Z,0
2018-04-22T02:30:26.537Z,0
2018-04-22T02:31:27.897Z,0
2018-04-22T02:32:29.259Z,0
2018-04-22T02:33:30.613Z,0
2018-04-22T02:34:31.975Z,0
2018-04-22T02:35:33.332Z,0
2018-04-22T02:36:34.714Z,0
2018-04-22T02:37:36.103Z,0
2018-04-22T02:38:37.458Z,0
2018-04-22T02:39:38.829Z,0
2018-04-22T02:40:40.203Z,0
2018-04-22T02:41:41.557Z,0
2018-04-22T02:42:42.915Z,0
2018-04-22T02:43:44.278Z,0
2018-04-22T02:44:45.639Z,0
2018-04-22T02:45:47.007Z,0
2018-04-22T02:46:48.357Z,0
2018-04-22T02:47:49.723Z,0
2018-04-22T02:48:51.080Z,0
2018-04-22T02:49:52.451Z,0
2018-04-22T02:50:53.809Z,0
2018-04-22T02:51:55.181Z,0
2018-04-22T02:52:56.531Z,0
2018-04-22T02:53:57.891Z,0
2018-04-22T02:54:59.246Z,0
2018-04-22T02:56:00.607Z,0
2018-04-22T02:57:01.968Z,0
2018-04-22T02:58:03.325Z,0
2018-04-22T02:59:04.680Z,0
2018-04-22T03:00:06.039Z,0
2018-04-22T03:01:07.398Z,0
2018-04-22T03:02:08.749Z,0
2018-04-22T03:03:10.115Z,0
2018-04-22T03:04:11.471Z,0
2018-04-22T03:05:12.826Z,0
2018-04-22T03:06:14.184Z,0
2018-04-22T03:07:15.560Z,0
2018-04-22T03:08:16.912Z,0
2018-04-22T03:09:18.268Z,0
2018-04-22T03:10:19.630Z,0
2018-04-22T03:11:20.987Z,0
2018-04-22T03:12:22.347Z,0
2018-04-22T03:13:23.713Z,0
2018-04-22T03:14:25.070Z,0
2018-04-22T03:15:26.427Z,0
2018-04-22T03:16:27.783Z,0
2018-04-22T03:17:29.145Z,0
2018-04-22T03:18:30.496Z,0
2018-04-22T03:19:31.859Z,0
2018-04-22T03:20:33.217Z,0
2018-04-22T03:21:34.578Z,0
2018-04-22T03:22:35.946Z,0
2018-04-22T03:23:37.301Z,0
2018-04-22T03:24:38.673Z,0
2018-04-22T03:25:40.030Z,0
2018-04-22T03:26:41.387Z,0
2018-04-22T03:27:42.750Z,0
2018-04-22T03:28:44.105Z,0
2018-04-22T03:29:45.465Z,0
2018-04-22T03:30:46.838Z,0
2018-04-22T03:31:48.190Z,0
2018-04-22T03:32:49.553Z,0
2018-04-22T03:33:50.912Z,0
2018-04-22T03:34:52.268Z,0
2018-04-22T03:35:53.637Z,0
2018-04-22T03:36:54.995Z,0
2018-04-22T03:37:56.354Z,0
2018-04-22T03:38:57.713Z,0
2018-04-22T03:39:59.085Z,0
2018-04-22T03:41:00.440Z,0
2018-04-22T03:42:01.797Z,0
2018-04-22T03:43:03.153Z,0
2018-04-22T03:44:04.513Z,0
2018-04-22T03:45:05.899Z,4
2018-04-22T03:46:07.262Z,4
2018-04-22T03:47:08.619Z,4
2018-04-22T03:48:09.991Z,4
2018-04-22T03:49:11.353Z,4
2018-04-22T03:50:12.708Z,8
2018-04-22T03:51:14.067Z,4
2018-04-22T03:52:15.445Z,8
2018-04-22T03:53:16.799Z,8
2018-04-22T03:54:18.158Z,8
2018-04-22T03:55:19.525Z,12
2018-04-22T03:56:20.880Z,16
2018-04-22T03:57:22.242Z,16
2018-04-22T03:58:23.595Z,20
2018-04-22T03:59:24.959Z,24
2018-04-22T04:00:26.427Z,28
2018-04-22T04:01:27.790Z,36
2018-04-22T04:02:29.149Z,40
2018-04-22T04:03:30.507Z,44
2018-04-22T04:04:31.870Z,52
2018-04-22T04:05:33.218Z,64
2018-04-22T04:06:34.574Z,72
2018-04-22T04:07:36.644Z,84
2018-04-22T04:08:38.004Z,96
2018-04-22T04:09:39.367Z,108
2018-04-22T04:10:40.727Z,124
2018-04-22T04:11:42.096Z,140
2018-04-22T04:12:43.451Z,160
2018-04-22T04:13:44.827Z,184
2018-04-22T04:14:46.182Z,212
2018-04-22T04:15:47.537Z,240
2018-04-22T04:16:48.913Z,272
2018-04-22T04:17:50.283Z,308
2018-04-22T04:18:51.644Z,344
2018-04-22T04:19:53.003Z,384
2018-04-22T04:20:54.367Z,428
2018-04-22T04:21:55.727Z,472
2018-04-22T04:22:57.086Z,520
2018-04-22T04:23:58.442Z,568
2018-04-22T04:24:59.808Z,624
2018-04-22T04:26:01.166Z,676
2018-04-22T04:27:02.527Z,736
2018-04-22T04:28:03.889Z,792
2018-04-22T04:29:05.302Z,860
2018-04-22T04:30:06.672Z,932
2018-04-22T04:31:08.022Z,1000
2018-04-22T04:32:09.395Z,1072
2018-04-22T04:33:10.753Z,1140
2018-04-22T04:34:12.114Z,1216
2018-04-22T04:35:13.477Z,1284
2018-04-22T04:36:14.842Z,1364
2018-04-22T04:37:16.196Z,1436
2018-04-22T04:38:17.557Z,1516
2018-04-22T04:39:18.923Z,1596
2018-04-22T04:40:20.286Z,1676
2018-04-22T04:41:21.651Z,1756
2018-04-22T04:42:23.014Z,1836
2018-04-22T04:43:24.397Z,1924
2018-04-22T04:44:25.741Z,2008
2018-04-22T04:45:27.114Z,2100
2018-04-22T04:46:28.480Z,2192
2018-04-22T04:47:29.845Z,2288
2018-04-22T04:48:31.205Z,2384
2018-04-22T04:49:32.576Z,2488
2018-04-22T04:50:33.950Z,2588
2018-04-22T04:51:35.375Z,2692
2018-04-22T04:52:36.809Z,2796
2018-04-22T04:53:38.142Z,2904
2018-04-22T04:54:39.517Z,3008
2018-04-22T04:55:40.870Z,3108
2018-04-22T04:56:42.231Z,3216
2018-04-22T04:57:43.595Z,3316
2018-04-22T04:58:44.961Z,3428
2018-04-22T04:59:46.321Z,3528
2018-04-22T05:00:47.692Z,3636
2018-04-22T05:01:49.058Z,3740
2018-04-22T05:02:50.418Z,3844
2018-04-22T05:03:51.776Z,3952
2018-04-22T05:04:53.138Z,4056
2018-04-22T05:05:54.504Z,4156
2018-04-22T05:06:55.862Z,4260
2018-04-22T05:07:57.235Z,4356
2018-04-22T05:08:58.595Z,4460
2018-04-22T05:09:59.963Z,4548
2018-04-22T05:11:01.314Z,4636
2018-04-22T05:12:02.684Z,4720
2018-04-22T05:13:04.052Z,4800
2018-04-22T05:14:05.453Z,4876
2018-04-22T05:15:06.814Z,4952
2018-04-22T05:16:08.185Z,5028
2018-04-22T05:17:09.583Z,5100
2018-04-22T05:18:10.945Z,5180
2018-04-22T05:19:12.308Z,5264
2018-04-22T05:20:13.690Z,5356
2018-04-22T05:21:15.067Z,5448
2018-04-22T05:22:16.426Z,5540
2018-04-22T05:23:17.794Z,5640
2018-04-22T05:24:19.203Z,5740
2018-04-22T05:25:20.480Z,5840
2018-04-22T05:26:21.849Z,5936
2018-04-22T05:27:23.216Z,6028
2018-04-22T05:28:24.572Z,6120
2018-04-22T05:29:25.945Z,6204
2018-04-22T05:30:27.302Z,6288
2018-04-22T05:31:28.662Z,6376
2018-04-22T05:32:30.029Z,6452
2018-04-22T05:33:31.397Z,6524
2018-04-22T05:34:32.754Z,6600
2018-04-22T05:35:34.124Z,6676
2018-04-22T05:36:35.514Z,6756
2018-04-22T05:37:36.886Z,6828
2018-04-22T05:38:38.262Z,6912
2018-04-22T05:39:39.628Z,6980
2018-04-22T05:40:40.994Z,7056
2018-04-22T05:41:42.397Z,7136
2018-04-22T05:42:43.791Z,7224
2018-04-22T05:43:45.112Z,7320
2018-04-22T05:44:46.469Z,7416
2018-04-22T05:45:47.830Z,7508
2018-04-22T05:46:49.195Z,7592
2018-04-22T05:47:50.564Z,7664
2018-04-22T05:48:51.931Z,7752
2018-04-22T05:49:53.302Z,7828
2018-04-22T05:50:54.666Z,7900
2018-04-22T05:51:56.038Z,7976
2018-04-22T05:52:57.398Z,8048
2018-04-22T05:53:58.771Z,8140
2018-04-22T05:55:00.150Z,8240
2018-04-22T05:56:01.505Z,8352
2018-04-22T05:57:02.874Z,8444
2018-04-22T05:58:04.236Z,8524
2018-04-22T05:59:05.628Z,8628
2018-04-22T06:00:07.026Z,8712
2018-04-22T06:01:08.506Z,8796
2018-04-22T06:02:09.880Z,8920
2018-04-22T06:03:11.242Z,9056
2018-04-22T06:04:12.600Z,9180
2018-04-22T06:05:13.974Z,9320
2018-04-22T06:06:15.434Z,9392
2018-04-22T06:07:16.787Z,9436
2018-04-22T06:08:18.155Z,9500
2018-04-22T06:09:19.536Z,9580
2018-04-22T06:10:20.905Z,9696
2018-04-22T06:11:22.273Z,9872
2018-04-22T06:12:23.644Z,9996
2018-04-22T06:13:25.025Z,10112
2018-04-22T06:14:26.395Z,10220
2018-04-22T06:15:27.750Z,10356
2018-04-22T06:16:29.136Z,10492
2018-04-22T06:17:30.512Z,10632
2018-04-22T06:18:31.886Z,10784
2018-04-22T06:19:33.253Z,11112
2018-04-22T06:20:34.621Z,12392
2018-04-22T06:21:36.174Z,13500
2018-04-22T06:22:37.542Z,13824
2018-04-22T06:23:38.905Z,13968
2018-04-22T06:24:40.280Z,14108
2018-04-22T06:25:41.649Z,14308
2018-04-22T06:26:43.022Z,14476
2018-04-22T06:27:44.401Z,14640
2018-04-22T06:28:45.769Z,14708
2018-04-22T06:29:47.139Z,14488
2018-04-22T06:30:48.512Z,15752
2018-04-22T06:31:49.870Z,16176
2018-04-22T06:32:51.249Z,16480
2018-04-22T06:33:52.623Z,16808
2018-04-22T06:34:53.989Z,17248
2018-04-22T06:35:55.381Z,18052
2018-04-22T06:36:56.761Z,19456
2018-04-22T06:37:58.122Z,20992
2018-04-22T06:38:59.492Z,24064
2018-04-22T06:40:00.872Z,27424
2018-04-22T06:41:02.250Z,30976
2018-04-22T06:42:03.625Z,32928
2018-04-22T06:43:05.151Z,32416
2018-04-22T06:44:06.520Z,31072
2018-04-22T06:45:07.888Z,32448
2018-04-22T06:46:09.296Z,33952
2018-04-22T06:47:10.633Z,35552
2018-04-22T06:48:11.997Z,36640
2018-04-22T06:49:13.376Z,37024
2018-04-22T06:50:14.750Z,41408
2018-04-22T06:51:16.132Z,45152
2018-04-22T06:52:17.502Z,48128
2018-04-22T06:53:18.880Z,50240
2018-04-22T06:54:20.240Z,53984
2018-04-22T06:55:21.609Z,61760
2018-04-22T06:56:22.991Z,61088
2018-04-22T06:57:24.362Z,58496
2018-04-22T06:58:25.735Z,58304
2018-04-22T06:59:27.109Z,57728
2018-04-22T07:00:28.488Z,54752
2018-04-22T07:01:29.859Z,49952
2018-04-22T07:02:31.233Z,47264
2018-04-22T07:03:32.615Z,46112
2018-04-22T07:04:33.984Z,43776
2018-04-22T07:05:35.416Z,40896
2018-04-22T07:06:36.784Z,39936
2018-04-22T07:07:38.167Z,40768
2018-04-22T07:08:39.557Z,40992
2018-04-22T07:09:40.938Z,39168
2018-04-22T07:10:42.313Z,38880
2018-04-22T07:11:43.692Z,38816
2018-04-22T07:12:45.073Z,37984
2018-04-22T07:13:46.453Z,36288
2018-04-22T07:14:47.825Z,35456
2018-04-22T07:15:49.203Z,36352
2018-04-22T07:16:50.584Z,36544
2018-04-22T07:17:51.966Z,34752
2018-04-22T07:18:53.353Z,35264
2018-04-22T07:19:54.724Z,36128
2018-04-22T07:20:56.110Z,36000
2018-04-22T07:21:57.489Z,36096
2018-04-22T07:22:58.873Z,36928
2018-04-22T07:24:00.325Z,36544
2018-04-22T07:25:01.645Z,35616
2018-04-22T07:26:03.024Z,35040
2018-04-22T07:27:04.405Z,35808
2018-04-22T07:28:05.816Z,35040
2018-04-22T07:29:07.200Z,36032
2018-04-22T07:30:08.571Z,37600
2018-04-22T07:31:09.949Z,40160
2018-04-22T07:32:11.383Z,41440
2018-04-22T07:33:12.749Z,42816
2018-04-22T07:34:14.119Z,43872
2018-04-22T07:35:15.533Z,43840
2018-04-22T07:36:16.915Z,41504
2018-04-22T07:37:18.297Z,40608
2018-04-22T07:38:19.674Z,42848
2018-04-22T07:39:21.062Z,46144
2018-04-22T07:40:22.438Z,45152
2018-04-22T07:41:23.815Z,42976
2018-04-22T07:42:25.249Z,44160
2018-04-22T07:43:26.598Z,45536
2018-04-22T07:44:27.963Z,46688
2018-04-22T07:45:29.342Z,51200
2018-04-22T07:46:30.718Z,57440
2018-04-22T07:47:32.087Z,57920
2018-04-22T07:48:33.465Z,51392
2018-04-22T07:49:34.853Z,45408
2018-04-22T07:50:36.236Z,41792
2018-04-22T07:51:37.617Z,38528
2018-04-22T07:52:38.997Z,36032
2018-04-22T07:53:40.385Z,35648
2018-04-22T07:54:41.772Z,34816
2018-04-22T07:55:43.165Z,32064
2018-04-22T07:56:44.535Z,32192
2018-04-22T07:57:45.942Z,32640
2018-04-22T07:58:47.317Z,32288
2018-04-22T07:59:48.696Z,32192
2018-04-22T08:00:50.078Z,31968
2018-04-22T08:01:51.442Z,31776
2018-04-22T08:02:52.835Z,32032
2018-04-22T08:03:54.215Z,32128
2018-04-22T08:04:55.604Z,32000
2018-04-22T08:05:57.005Z,32256
2018-04-22T08:06:58.384Z,32512
2018-04-22T08:07:59.800Z,32576
2018-04-22T08:09:01.173Z,32704
2018-04-22T08:10:02.556Z,32800
2018-04-22T08:11:03.939Z,30368
2018-04-22T08:12:06.068Z,32672
2018-04-22T08:13:07.475Z,32928
2018-04-22T08:14:08.868Z,33056
2018-04-22T08:15:10.250Z,33024
2018-04-22T08:16:11.644Z,32928
2018-04-22T08:17:13.019Z,32800
2018-04-22T08:18:14.404Z,32704
2018-04-22T08:19:15.796Z,32608
2018-04-22T08:20:17.184Z,32320
2018-04-22T08:21:18.566Z,33024
2018-04-22T08:22:19.962Z,33152
2018-04-22T08:23:21.337Z,33248
2018-04-22T08:24:22.713Z,33440
2018-04-22T08:25:24.090Z,33760
2018-04-22T08:26:25.475Z,33888
2018-04-22T08:27:26.855Z,33824
2018-04-22T08:28:28.269Z,33984
2018-04-22T08:29:29.621Z,34784
2018-04-22T08:30:31.005Z,40224
2018-04-22T08:31:32.404Z,61472
2018-04-22T08:32:33.788Z,85216
2018-04-22T08:33:35.198Z,88864
2018-04-22T08:34:36.586Z,83168
2018-04-22T08:35:37.965Z,82272
2018-04-22T08:36:39.356Z,82656
2018-04-22T08:37:40.741Z,81376
2018-04-22T08:38:42.126Z,70880
2018-04-22T08:39:43.517Z,79328
2018-04-22T08:40:44.896Z,77984
2018-04-22T08:41:46.284Z,80288
2018-04-22T08:42:47.679Z,80224
2018-04-22T08:43:49.065Z,79584
2018-04-22T08:44:50.457Z,79008
2018-04-22T08:45:51.838Z,75872
2018-04-22T08:46:53.222Z,77632
2018-04-22T08:47:54.619Z,79104
2018-04-22T08:48:55.991Z,80096
2018-04-22T08:49:57.377Z,77632
2018-04-22T08:50:58.767Z,74464
2018-04-22T08:52:00.158Z,81408
2018-04-22T08:53:01.539Z,82784
2018-04-22T08:54:02.922Z,82784
2018-04-22T08:55:04.304Z,86272
2018-04-22T08:56:05.813Z,86208
2018-04-22T08:57:07.197Z,86272
2018-04-22T08:58:08.591Z,85376
2018-04-22T08:59:09.984Z,83968
2018-04-22T09:00:11.375Z,83488
2018-04-22T09:01:12.751Z,82016
2018-04-22T09:02:14.132Z,82240
2018-04-22T09:03:15.536Z,86784
2018-04-22T09:04:16.928Z,87072
2018-04-22T09:05:18.315Z,88768
2018-04-22T09:06:19.687Z,90080
2018-04-22T09:07:21.077Z,89440
2018-04-22T09:08:22.465Z,86304
2018-04-22T09:09:23.850Z,85728
2018-04-22T09:10:25.238Z,90752
2018-04-22T09:11:26.627Z,91616
2018-04-22T09:12:28.014Z,87808
2018-04-22T09:13:29.419Z,89216
2018-04-22T09:14:30.800Z,91424
2018-04-22T09:15:32.187Z,93056
2018-04-22T09:16:33.564Z,92128
2018-04-22T09:17:34.965Z,91936
2018-04-22T09:18:36.345Z,89888
2018-04-22T09:19:37.740Z,90048
2018-04-22T09:20:39.133Z,92128
2018-04-22T09:21:40.513Z,90752
2018-04-22T09:22:41.901Z,91680
2018-04-22T09:23:43.284Z,90400
2018-04-22T09:24:44.675Z,87232
2018-04-22T09:25:46.061Z,92416
2018-04-22T09:26:47.443Z,92128
2018-04-22T09:27:48.837Z,89376
2018-04-22T09:28:50.253Z,89216
2018-04-22T09:29:51.641Z,91040
2018-04-22T09:30:53.032Z,92992
2018-04-22T09:31:54.417Z,94848
2018-04-22T09:32:55.810Z,97216
2018-04-22T09:33:57.205Z,96512
2018-04-22T09:34:58.586Z,98560
2018-04-22T09:35:59.969Z,98208
2018-04-22T09:37:01.352Z,97696
2018-04-22T09:38:02.745Z,95168
2018-04-22T09:39:04.137Z,92768
2018-04-22T09:40:05.547Z,87232
2018-04-22T09:41:06.939Z,90944
2018-04-22T09:42:09.786Z,97760
2018-04-22T09:43:11.172Z,99776
2018-04-22T09:44:12.557Z,99872
2018-04-22T09:45:13.939Z,97088
2018-04-22T09:46:15.319Z,94112
2018-04-22T09:47:16.719Z,93216
2018-04-22T09:48:18.112Z,97600
2018-04-22T09:49:19.494Z,100800
2018-04-22T09:50:20.891Z,98976
2018-04-22T09:51:22.271Z,98272
2018-04-22T09:52:23.663Z,100096
2018-04-22T09:53:25.086Z,98464
2018-04-22T09:54:26.465Z,95104
2018-04-22T09:55:27.962Z,97408
2018-04-22T09:56:29.345Z,99488
2018-04-22T09:57:30.749Z,99712
2018-04-22T09:58:32.148Z,96192
2018-04-22T09:59:33.562Z,91776
2018-04-22T10:00:34.944Z,93920
2018-04-22T10:01:36.498Z,92032
2018-04-22T10:02:37.896Z,93888
2018-04-22T10:03:39.292Z,96704
2018-04-22T10:04:40.683Z,102560
2018-04-22T10:05:42.089Z,103200
2018-04-22T10:06:43.497Z,101344
2018-04-22T10:07:44.922Z,102208
2018-04-22T10:08:46.334Z,102624
2018-04-22T10:09:47.727Z,100640
2018-04-22T10:10:49.165Z,94816
2018-04-22T10:11:50.519Z,89856
2018-04-22T10:12:51.900Z,89600
2018-04-22T10:13:53.296Z,94400
2018-04-22T10:14:54.686Z,98656
2018-04-22T10:15:56.072Z,100864
2018-04-22T10:16:57.460Z,95360
2018-04-22T10:17:58.849Z,91360
2018-04-22T10:19:00.239Z,88864
2018-04-22T10:20:01.640Z,91008
2018-04-22T10:21:03.032Z,94400
2018-04-22T10:22:04.421Z,99712
2018-04-22T10:23:06.510Z,101312
2018-04-22T10:24:07.893Z,100640
2018-04-22T10:25:09.286Z,99392
2018-04-22T10:26:10.695Z,98816
2018-04-22T10:27:12.083Z,98336
2018-04-22T10:28:13.477Z,97344
2018-04-22T10:29:14.911Z,98176
2018-04-22T10:30:16.308Z,98272
2018-04-22T10:31:17.696Z,99584
2018-04-22T10:32:19.084Z,100192
2018-04-22T10:33:20.474Z,98368
2018-04-22T10:34:21.855Z,97568
2018-04-22T10:35:23.256Z,98432
2018-04-22T10:36:24.643Z,98912
2018-04-22T10:37:26.035Z,101952
2018-04-22T10:38:27.443Z,100736
2018-04-22T10:39:28.854Z,93760
2018-04-22T10:40:30.220Z,90624
2018-04-22T10:41:31.619Z,97568
2018-04-22T10:42:33.017Z,101568
2018-04-22T10:43:34.416Z,102272
2018-04-22T10:44:36.738Z,101248
2018-04-22T10:45:38.142Z,98272
2018-04-22T10:46:39.569Z,98688
2018-04-22T10:47:40.933Z,98976
2018-04-22T10:48:42.325Z,99200
2018-04-22T10:49:43.714Z,101408
2018-04-22T10:50:45.114Z,103552
2018-04-22T10:51:46.502Z,104352
2018-04-22T10:52:47.886Z,104864
2018-04-22T10:53:49.291Z,103808
2018-04-22T10:54:50.667Z,101184
2018-04-22T10:55:52.063Z,97440
2018-04-22T10:56:53.442Z,98656
2018-04-22T10:57:54.896Z,102240
2018-04-22T10:58:56.222Z,104992
2018-04-22T10:59:57.613Z,106848
2018-04-22T11:00:58.997Z,103904
2018-04-22T11:02:00.420Z,97856
2018-04-22T11:03:01.808Z,94048
2018-04-22T11:04:03.196Z,93728
2018-04-22T11:05:04.659Z,98528
2018-04-22T11:06:05.970Z,104320
2018-04-22T11:07:07.368Z,106112
2018-04-22T11:08:08.752Z,103904
2018-04-22T11:09:10.151Z,99776
2018-04-22T11:10:11.538Z,97984
2018-04-22T11:11:12.928Z,98944
2018-04-22T11:12:14.309Z,97216
2018-04-22T11:13:15.717Z,97120
2018-04-22T11:14:17.148Z,96928
2018-04-22T11:15:18.548Z,101792
2018-04-22T11:16:19.936Z,101824
2018-04-22T11:17:21.322Z,98848
2018-04-22T11:18:22.709Z,98912
2018-04-22T11:19:24.109Z,100576
2018-04-22T11:20:25.494Z,100608
2018-04-22T11:21:26.877Z,98208
2018-04-22T11:22:28.273Z,96736
2018-04-22T11:23:29.661Z,96128
2018-04-22T11:24:31.076Z,99136
2018-04-22T11:25:32.458Z,98176
2018-04-22T11:26:33.843Z,96896
2018-04-22T11:27:35.250Z,97120
2018-04-22T11:28:36.655Z,98528
2018-04-22T11:29:38.039Z,98848
2018-04-22T11:30:39.470Z,98144
2018-04-22T11:31:40.862Z,98880
2018-04-22T11:32:42.247Z,100384
2018-04-22T11:33:43.649Z,99616
2018-04-22T11:34:45.053Z,98400
2018-04-22T11:35:46.487Z,96352
2018-04-22T11:36:47.880Z,92352
2018-04-22T11:37:49.310Z,93440
2018-04-22T11:38:50.701Z,94880
2018-04-22T11:39:52.166Z,96544
2018-04-22T11:40:53.537Z,95040
2018-04-22T11:41:54.942Z,93504
2018-04-22T11:42:56.330Z,91616
2018-04-22T11:43:57.743Z,91488
2018-04-22T11:44:59.144Z,91040
2018-04-22T11:46:00.568Z,92256
2018-04-22T11:47:01.962Z,90976
2018-04-22T11:48:03.359Z,90720
2018-04-22T11:49:04.741Z,90656
2018-04-22T11:50:06.161Z,93248
2018-04-22T11:51:07.579Z,93408
2018-04-22T11:52:09.026Z,90368
2018-04-22T11:53:10.423Z,90560
2018-04-22T11:54:11.838Z,88896
2018-04-22T11:55:13.230Z,87840
2018-04-22T11:56:14.623Z,87104
2018-04-22T11:57:16.025Z,86304
2018-04-22T11:58:17.411Z,85152
2018-04-22T11:59:18.804Z,85920
2018-04-22T12:00:20.195Z,88384
2018-04-22T12:01:21.601Z,87680
2018-04-22T12:02:22.993Z,89376
2018-04-22T12:03:24.381Z,89248
2018-04-22T12:04:25.788Z,88640
2018-04-22T12:05:27.182Z,89152
2018-04-22T12:06:28.615Z,89824
2018-04-22T12:07:29.965Z,89664
2018-04-22T12:08:31.357Z,89568
2018-04-22T12:09:32.741Z,91392
2018-04-22T12:10:34.149Z,92928
2018-04-22T12:11:35.768Z,93056
2018-04-22T12:12:37.166Z,91520
2018-04-22T12:13:38.587Z,91040
2018-04-22T12:14:40.013Z,90592
2018-04-22T12:15:41.370Z,93088
2018-04-22T12:16:42.764Z,92608
2018-04-22T12:17:44.162Z,91680
2018-04-22T12:18:45.553Z,90048
2018-04-22T12:19:46.946Z,89056
2018-04-22T12:20:48.342Z,91296
2018-04-22T12:21:49.734Z,93856
2018-04-22T12:22:51.131Z,93728
2018-04-22T12:23:52.512Z,92960
2018-04-22T12:24:53.903Z,93760
2018-04-22T12:25:55.316Z,94464
2018-04-22T12:26:56.727Z,93792
2018-04-22T12:27:58.124Z,93568
2018-04-22T12:28:59.506Z,91968
2018-04-22T12:30:00.903Z,90912
2018-04-22T12:31:02.289Z,89216
2018-04-22T12:32:03.679Z,89024
2018-04-22T12:33:05.080Z,89088
2018-04-22T12:34:06.472Z,89024
2018-04-22T12:35:07.865Z,91584
2018-04-22T12:36:09.292Z,91904
2018-04-22T12:37:10.646Z,91168
2018-04-22T12:38:12.034Z,90144
2018-04-22T12:39:13.449Z,91584
2018-04-22T12:40:14.846Z,92128
2018-04-22T12:41:16.242Z,90720
2018-04-22T12:42:17.630Z,89280
2018-04-22T12:43:19.017Z,89088
2018-04-22T12:44:20.413Z,90880
2018-04-22T12:45:21.802Z,89216
2018-04-22T12:46:23.196Z,85504
2018-04-22T12:47:24.577Z,83264
2018-04-22T12:48:25.992Z,80224
2018-04-22T12:49:27.379Z,81280
2018-04-22T12:50:28.771Z,83072
2018-04-22T12:51:30.161Z,88512
2018-04-22T12:52:31.545Z,92160
2018-04-22T12:53:32.934Z,93632
2018-04-22T12:54:34.322Z,91040
2018-04-22T12:55:35.716Z,90400
2018-04-22T12:56:37.100Z,91200
2018-04-22T12:57:38.485Z,91872
2018-04-22T12:58:39.870Z,91680
2018-04-22T12:59:41.262Z,90688
2018-04-22T13:00:42.650Z,91104
2018-04-22T13:01:44.028Z,92064
2018-04-22T13:02:45.424Z,91584
2018-04-22T13:03:46.800Z,91648
2018-04-22T13:04:48.190Z,91296
2018-04-22T13:05:49.574Z,90240
2018-04-22T13:06:50.976Z,87904
2018-04-22T13:07:52.362Z,86464
2018-04-22T13:08:53.752Z,88640
2018-04-22T13:09:55.141Z,88000
2018-04-22T13:10:56.536Z,87040
2018-04-22T13:11:57.928Z,86560
2018-04-22T13:12:59.309Z,86848
2018-04-22T13:14:00.698Z,86912
2018-04-22T13:15:02.085Z,86784
2018-04-22T13:16:03.481Z,78528
2018-04-22T13:17:04.918Z,77280
2018-04-22T13:18:06.316Z,59040
2018-04-22T13:19:07.702Z,54688
2018-04-22T13:20:09.082Z,32832
2018-04-22T13:21:10.475Z,28608
2018-04-22T13:22:11.857Z,26176
2018-04-22T13:23:13.248Z,24096
2018-04-22T13:24:14.635Z,23200
2018-04-22T13:25:16.013Z,22016
2018-04-22T13:26:17.399Z,21184
2018-04-22T13:27:18.790Z,21024
2018-04-22T13:28:20.180Z,20960
2018-04-22T13:29:21.557Z,21216
2018-04-22T13:30:22.947Z,21568
2018-04-22T13:31:24.336Z,21984
2018-04-22T13:32:25.722Z,22496
2018-04-22T13:33:27.106Z,23072
2018-04-22T13:34:28.499Z,23552
2018-04-22T13:35:29.889Z,23968
2018-04-22T13:36:31.273Z,24416
2018-04-22T13:37:32.657Z,25216
2018-04-22T13:38:34.051Z,28768
2018-04-22T13:39:35.445Z,47904
2018-04-22T13:40:36.816Z,86336
2018-04-22T13:41:38.199Z,86720
2018-04-22T13:42:39.584Z,94240
2018-04-22T13:43:40.969Z,92480
2018-04-22T13:44:42.355Z,88864
2018-04-22T13:45:43.738Z,88576
2018-04-22T13:46:45.122Z,91264